Pagrindinis puslapis
METAR-TAF:

METAR-TAF

Oro uostai :

Elis Springsas, Australija

platuma: 23-48S, ilguma: 133-53E, Aukštis: 545 m

Dabartinis oras

Ataskaita buvo paskelbta 34 minutes, ne 21:30 UTC
Vėjas 5 kt iš Vakarų
Temperatūra 12°C
Drėgmė 76%
Slėgis 1020 hPa
Matomumas 10 km arba daugiau
Su prošvaistėmis ne aukštis 8000 ft

METAR: YBAS 302130Z AUTO 26005KT 9999 // BKN080 12/08 Q1020 RF00.0/000.0

Laikas: 07:34 (22:04 UTC)

Prognozė

Ataskaita buvo paskelbta 4 valandos ir 48 minutes, ne 17:16 UTC
Prognozė galioja nuo 30 metu 18 UTC su 31 metu 18 UTC
Vėjas 7 kt iš Vakarų/Šiaurės Vakarų
Matomumas 10 km arba daugiau
nėra debesų žemiau 1500 m ir nėra kamuolinių lietaus debesų
Nuo 31 metu 0000 UTC
Vėjas 10 kt iš Pietų
Matomumas 10 km arba daugiau
nėra debesų žemiau 1500 m ir nėra kamuolinių lietaus debesų

TAF: YBAS 301716Z 3018/3118 30007KT CAVOK FM310000 19010KT CAVOK

Orai ataskaitas ir orų prognozės (METAR, TAF).

turimą stotys yra geltonos ir raudonos taškus žemėlapyje.

Perkelti pele per norėdami pamatyti stoties vardą.

Tada spustelėkite, norėdami matyti oro stebėjimo ir prognozės.

Norėdami pakeisti žemėlapį: spustelėkite ant žalios mygtukų su juodo kryžiaus žemyn,; žalią mygtuką su brūkšneliu, jei norite nutolinti; arba žalių rodyklių gretimoms žemėlapius.


METAR-TAF: